Time;durP1;ratioP1;P1;durP2;ratioP2;P2;SDS_P1;SDS_P2;PMS_P1;PMS_P2;Temp;Humidity;BMP_temperature;BMP_pressure;BME280_temperature;BME280_humidity;BME280_pressure;Samples;Min_cycle;Max_cycle;Signal;HPM_P1;HPM_P2
2023/11/24 00:15:25;;;;;;;4.27;1.63;;;6.00;99.90;;;;;;5824621;24;20163;-87
2023/11/24 00:40:43;;;;;;;6.23;2.03;;;6.20;99.90;;;;;;5925272;23;20524;-85
2023/11/24 02:06:31;;;;;;;1.73;0.90;;;3.90;99.90;;;;;;5892490;23;20632;-85
2023/11/24 02:32:04;;;;;;;2.07;1.40;;;4.60;99.90;;;;;;5892710;23;20603;-84
2023/11/24 02:52:18;;;;;;;3.63;2.07;;;4.40;99.90;;;;;;5752860;24;20186;-84
2023/11/24 03:17:56;;;;;;;4.13;2.10;;;3.90;99.90;;;;;;5694048;24;20160;-86
2023/11/24 04:33:58;;;;;;;6.67;2.00;;;4.30;99.90;;;;;;5768545;24;20173;-84
2023/11/24 04:53:46;;;;;;;5.93;2.00;;;4.10;99.90;;;;;;5875705;24;20228;-86
2023/11/24 05:19:40;;;;;;;5.53;2.03;;;4.10;99.90;;;;;;5866305;23;20220;-83
2023/11/24 06:05:16;;;;;;;7.47;2.50;;;4.50;99.90;;;;;;5698665;24;20178;-83
2023/11/24 06:35:02;;;;;;;6.97;2.20;;;4.00;99.90;;;;;;5617715;24;20235;-82
2023/11/24 06:55:45;;;;;;;6.67;2.83;;;4.20;99.90;;;;;;5814452;24;20390;-82
2023/11/24 07:26:07;;;;;;;9.57;2.90;;;4.40;99.90;;;;;;5603324;24;20494;-79
2023/11/24 07:56:09;;;;;;;9.53;3.07;;;4.60;99.90;;;;;;5478834;24;20604;-82
2023/11/24 08:17:00;;;;;;;4.97;2.00;;;4.60;99.90;;;;;;5624530;24;20169;-82
2023/11/24 09:27:28;;;;;;;6.13;2.60;;;5.40;96.90;;;;;;5281050;25;20755;-80
2023/11/24 10:03:38;;;;;;;8.33;2.47;;;4.60;99.90;;;;;;5669708;23;20592;-80
2023/11/24 10:33:54;;;;;;;7.80;2.70;;;4.70;97.90;;;;;;5682154;24;20240;-81
2023/11/24 10:58:45;;;;;;;6.93;2.57;;;4.40;99.90;;;;;;5608771;24;20391;-82
2023/11/24 11:24:35;;;;;;;3.93;1.90;;;4.90;90.70;;;;;;5603671;24;20340;-80
2023/11/24 11:45:09;;;;;;;4.53;2.03;;;4.50;85.50;;;;;;5643101;24;20266;-84
2023/11/24 11:49:27;;;;;;;3.77;2.20;;;4.50;86.20;;;;;;5639382;24;20442;-83
2023/11/24 12:10:04;;;;;;;8.40;3.13;;;4.80;89.40;;;;;;5668626;24;20357;-81
2023/11/24 14:02:03;;;;;;;6.37;3.20;;;3.30;99.90;;;;;;5656597;24;20280;-84
2023/11/24 14:52:12;;;;;;;2.83;2.00;;;3.00;99.90;;;;;;5707869;24;20223;-85
2023/11/24 15:18:04;;;;;;;6.33;4.10;;;2.80;99.90;;;;;;5912877;23;20834;-82
2023/11/24 15:38:16;;;;;;;7.53;4.33;;;2.80;99.90;;;;;;5739257;24;20170;-82
2023/11/24 16:08:52;;;;;;;5.53;3.10;;;2.00;99.90;;;;;;5942188;23;20212;-82
2023/11/24 16:29:13;;;;;;;2.70;2.00;;;2.20;99.90;;;;;;5608443;24;20210;-83
2023/11/24 16:59:03;;;;;;;2.83;2.10;;;1.60;99.90;;;;;;5587807;25;20465;-82
2023/11/24 17:19:46;;;;;;;8.07;2.80;;;1.80;99.90;;;;;;5751124;24;20195;-83
2023/11/24 17:45:15;;;;;;;7.37;4.93;;;1.90;99.90;;;;;;5723368;24;20182;-86
2023/11/24 18:15:13;;;;;;;11.53;7.87;;;1.40;99.90;;;;;;5778889;24;20360;-85
2023/11/24 18:40:52;;;;;;;14.57;8.10;;;1.60;99.90;;;;;;5708528;24;20447;-82
2023/11/24 19:01:14;;;;;;;15.67;8.00;;;1.60;99.90;;;;;;5565111;25;20528;-84
2023/11/24 19:26:25;;;;;;;14.00;7.73;;;2.10;99.90;;;;;;5582983;25;20197;-82
2023/11/24 19:47:09;;;;;;;16.73;7.57;;;2.40;99.90;;;;;;5615267;25;20198;-83
2023/11/24 19:51:32;;;;;;;15.53;7.97;;;2.50;99.90;;;;;;5614173;25;20669;-83
2023/11/24 20:22:30;;;;;;;18.13;8.13;;;2.50;99.90;;;;;;5770082;24;20185;-84
2023/11/24 20:47:59;;;;;;;14.30;7.93;;;2.40;99.90;;;;;;5811076;24;20220;-82
2023/11/24 21:38:04;;;;;;;15.47;7.70;;;2.90;99.90;;;;;;5720783;24;20669;-84
2023/11/24 22:39:30;;;;;;;7.77;5.47;;;2.40;99.90;;;;;;5874234;23;20272;-83
2023/11/24 22:59:50;;;;;;;6.73;5.00;;;2.30;99.90;;;;;;5680283;24;20229;-86
2023/11/24 23:40:19;;;;;;;13.10;7.43;;;2.40;99.90;;;;;;5885137;23;20198;-83
